FDMS/MTS METAR and TAF weather

Enter ICAO airport designator
Station Type Date Time Source
FDMS METAR 2018/10/19 14:00 UTC NOAA

FDMS 191400Z 00000KT 9999 FEW035 25/14 Q1015 NOSIG


Station Type Date Time Source
FDMS Decoded METAR 2018/10/19 14:00 UTC NOAA

Manzini / Matsapa Airport, Swaziland (FDMS) 26-32S 031-18E
Oct 19, 2018 - 10:00 AM EDT / 2018.10.19 1400 UTC
Wind: Calm:0
Visibility: greater than 7 mile(s):0
Sky conditions: mostly clear
Temperature: 77 F (25 C)
Dew Point: 57 F (14 C)
Relative Humidity: 50%
Pressure (altimeter): 29.97 in. Hg (1015 hPa)
ob: FDMS 191400Z 00000KT 9999 FEW035 25/14 Q1015 NOSIG
cycle: 14

Station Type Date Time Source
FDMS TAF 2018/10/15 12:00 UTC NOAA

TAF FDMS 151000Z 1512/1518 14007KT 9999 SCT035


Example: see airport list